createdAt,value
2022-08-22T00:00:33.942Z,15.82
2022-08-22T00:02:52.898Z,17.71
2022-08-22T00:02:56.068Z,15.90
2022-08-22T00:03:01.689Z,18.45
2022-08-22T00:03:09.413Z,15.82
2022-08-22T00:03:12.645Z,15.87
2022-08-22T00:05:54.917Z,15.80
2022-08-22T00:08:58.786Z,15.81
2022-08-22T00:11:49.719Z,15.80
2022-08-22T00:14:32.929Z,15.82
2022-08-22T00:17:03.008Z,15.82
2022-08-22T00:19:49.920Z,15.82
2022-08-22T00:22:25.963Z,15.84
2022-08-22T00:25:01.690Z,15.82
2022-08-22T00:27:36.698Z,15.83
2022-08-22T00:30:16.135Z,15.81
2022-08-22T00:32:49.153Z,15.79
2022-08-22T00:35:23.809Z,15.75
2022-08-22T00:38:10.686Z,15.70
2022-08-22T00:41:14.773Z,15.67
2022-08-22T00:44:08.019Z,15.66
2022-08-22T00:46:48.259Z,15.62
2022-08-22T00:49:23.508Z,15.59
2022-08-22T00:52:04.822Z,15.55
2022-08-22T00:54:34.192Z,15.49
2022-08-22T00:57:10.636Z,15.46
2022-08-22T00:59:55.175Z,15.43
2022-08-22T01:02:36.733Z,15.41
2022-08-22T01:05:17.138Z,15.38
2022-08-22T01:08:14.072Z,15.35
2022-08-22T01:11:26.818Z,15.31
2022-08-22T01:14:34.416Z,15.30
2022-08-22T01:17:22.743Z,15.34
2022-08-22T01:20:08.039Z,15.38
2022-08-22T01:22:47.072Z,15.36
2022-08-22T01:25:39.296Z,15.36
2022-08-22T01:28:09.770Z,15.34
2022-08-22T01:30:55.567Z,15.34
2022-08-22T01:33:59.404Z,15.34
2022-08-22T01:36:47.692Z,15.35
2022-08-22T01:39:19.890Z,15.31
2022-08-22T01:41:46.183Z,15.29
2022-08-22T01:44:28.724Z,15.26
2022-08-22T01:47:06.779Z,15.23
2022-08-22T01:49:44.107Z,15.29
2022-08-22T01:52:32.191Z,15.36
2022-08-22T01:55:22.723Z,15.39
2022-08-22T01:57:59.444Z,15.43
2022-08-22T02:00:34.721Z,15.43
2022-08-22T02:03:33.102Z,15.47
2022-08-22T02:06:17.050Z,15.51
2022-08-22T02:08:50.346Z,15.56
2022-08-22T02:11:33.514Z,15.55
2022-08-22T02:14:41.939Z,15.57
2022-08-22T02:17:17.513Z,15.55
2022-08-22T02:19:56.790Z,15.51
2022-08-22T02:23:20.362Z,15.46
2022-08-22T02:26:01.675Z,15.44
2022-08-22T02:28:57.409Z,15.45
2022-08-22T02:31:38.619Z,15.45
2022-08-22T02:34:37.417Z,15.45
2022-08-22T02:37:07.987Z,15.46
2022-08-22T02:40:02.356Z,15.44
2022-08-22T02:42:38.058Z,15.43
2022-08-22T02:45:15.297Z,15.41
2022-08-22T02:48:04.979Z,15.39
2022-08-22T02:50:47.371Z,15.40
2022-08-22T02:53:23.258Z,15.40
2022-08-22T02:56:08.675Z,15.41
2022-08-22T02:58:59.893Z,15.35
2022-08-22T03:01:29.767Z,15.36
2022-08-22T03:04:21.515Z,15.37
2022-08-22T03:07:03.425Z,15.35
2022-08-22T03:09:35.405Z,15.35
2022-08-22T03:12:21.740Z,15.38
2022-08-22T03:15:09.874Z,15.40
2022-08-22T03:17:49.596Z,15.43
2022-08-22T03:20:40.446Z,15.43
2022-08-22T03:23:20.206Z,15.42
2022-08-22T03:25:59.617Z,15.45
2022-08-22T03:28:38.119Z,15.46
2022-08-22T03:31:13.483Z,15.46
2022-08-22T03:33:40.111Z,15.46
2022-08-22T03:36:28.668Z,15.44
2022-08-22T03:39:17.309Z,15.43
2022-08-22T03:42:23.328Z,15.41
2022-08-22T03:45:00.177Z,15.38
2022-08-22T03:48:11.523Z,15.38
2022-08-22T03:50:38.309Z,15.38
2022-08-22T03:53:37.269Z,15.41
2022-08-22T03:56:09.666Z,15.40
2022-08-22T03:59:02.870Z,15.39
2022-08-22T04:01:51.613Z,15.39
2022-08-22T04:04:43.141Z,15.43
2022-08-22T04:07:28.005Z,15.43
2022-08-22T04:10:29.054Z,15.45
2022-08-22T04:13:24.802Z,15.45
2022-08-22T04:16:29.396Z,15.45
2022-08-22T04:19:30.418Z,15.45
2022-08-22T04:22:21.539Z,15.42
2022-08-22T04:24:57.821Z,15.43
2022-08-22T04:27:47.883Z,15.44
2022-08-22T04:30:23.312Z,15.44
2022-08-22T04:33:20.955Z,15.42
2022-08-22T04:35:59.207Z,15.39
2022-08-22T04:38:48.234Z,15.39
2022-08-22T04:41:50.300Z,15.41
2022-08-22T04:44:31.172Z,15.42
2022-08-22T04:46:59.995Z,15.44
2022-08-22T04:49:38.509Z,15.47
2022-08-22T04:52:13.981Z,15.49
2022-08-22T04:54:58.974Z,15.49
2022-08-22T04:57:32.320Z,15.50
2022-08-22T05:00:02.311Z,15.51
2022-08-22T05:02:28.876Z,15.54
2022-08-22T05:05:04.030Z,15.56
2022-08-22T05:07:37.331Z,15.56
2022-08-22T05:10:16.270Z,15.57
2022-08-22T05:12:49.455Z,15.59
2022-08-22T05:15:23.212Z,15.59
2022-08-22T05:17:53.256Z,15.62
2022-08-22T05:20:25.151Z,15.63
2022-08-22T05:23:02.625Z,15.61
2022-08-22T05:25:36.396Z,15.64
2022-08-22T05:28:28.674Z,15.66
2022-08-22T05:30:56.090Z,15.71
2022-08-22T05:33:31.762Z,15.75
2022-08-22T05:36:04.361Z,15.75
2022-08-22T05:38:36.356Z,15.76
2022-08-22T05:41:10.026Z,15.77
2022-08-22T05:43:40.652Z,15.82
2022-08-22T05:46:26.862Z,15.85
2022-08-22T05:49:00.230Z,15.89
2022-08-22T05:51:39.435Z,15.96
2022-08-22T05:54:22.318Z,16.01
2022-08-22T05:57:11.888Z,16.07
2022-08-22T05:59:41.827Z,16.10
2022-08-22T06:02:22.527Z,16.18
2022-08-22T06:04:54.668Z,16.20
2022-08-22T06:07:33.783Z,16.26
2022-08-22T06:10:13.547Z,16.29
2022-08-22T06:12:50.820Z,16.37
2022-08-22T06:15:52.704Z,16.42
2022-08-22T06:18:24.850Z,16.53
2022-08-22T06:20:57.686Z,16.65
2022-08-22T06:23:29.882Z,16.70
2022-08-22T06:26:00.274Z,16.79
2022-08-22T06:28:34.033Z,16.84
2022-08-22T06:31:03.398Z,16.96
2022-08-22T06:33:34.742Z,17.07
2022-08-22T06:36:24.987Z,17.21
2022-08-22T06:39:09.845Z,17.25
2022-08-22T06:41:42.774Z,17.31
2022-08-22T06:44:13.353Z,17.38
2022-08-22T06:46:41.278Z,17.50
2022-08-22T06:49:09.274Z,17.62
2022-08-22T06:51:38.775Z,17.70
2022-08-22T06:54:11.443Z,17.93
2022-08-22T06:56:44.110Z,17.99
2022-08-22T06:59:17.122Z,18.02
2022-08-22T07:02:13.379Z,18.27
2022-08-22T07:04:43.797Z,18.45
2022-08-22T07:07:10.163Z,18.68
2022-08-22T07:09:40.515Z,18.82
2022-08-22T07:12:19.926Z,18.74
2022-08-22T07:14:52.910Z,18.87
2022-08-22T07:17:23.418Z,19.24
2022-08-22T07:20:18.618Z,19.59
2022-08-22T07:22:57.579Z,19.41
2022-08-22T07:25:25.247Z,19.43
2022-08-22T07:28:36.733Z,19.54
2022-08-22T07:31:31.762Z,20.23
2022-08-22T07:34:18.218Z,20.49
2022-08-22T07:37:00.919Z,20.74
2022-08-22T07:39:37.459Z,21.10
2022-08-22T07:42:29.779Z,21.73
2022-08-22T07:45:14.025Z,22.19
2022-08-22T07:48:08.982Z,22.43
2022-08-22T07:50:42.720Z,23.01
2022-08-22T07:53:34.028Z,23.99
2022-08-22T07:56:03.208Z,24.91
2022-08-22T07:58:33.835Z,25.70
2022-08-22T08:01:00.698Z,26.45
2022-08-22T08:03:30.297Z,26.46
2022-08-22T08:05:57.294Z,26.10
2022-08-22T08:08:31.005Z,26.61
2022-08-22T08:11:00.453Z,27.28
2022-08-22T08:13:33.999Z,27.40
2022-08-22T08:16:02.341Z,27.24
2022-08-22T08:18:31.995Z,27.46
2022-08-22T08:21:02.393Z,27.65
2022-08-22T08:23:33.552Z,27.23
2022-08-22T08:26:13.218Z,27.31
2022-08-22T08:28:45.671Z,27.48
2022-08-22T08:31:20.432Z,27.50
2022-08-22T08:33:50.263Z,27.53
2022-08-22T08:36:31.089Z,26.94
2022-08-22T08:39:12.383Z,27.89
2022-08-22T08:42:09.144Z,28.45
2022-08-22T08:44:38.439Z,27.55
2022-08-22T08:47:32.880Z,27.83
2022-08-22T08:50:16.856Z,27.63
2022-08-22T08:52:59.166Z,27.31
2022-08-22T08:55:44.575Z,28.09
2022-08-22T08:58:19.903Z,28.36
2022-08-22T09:00:49.284Z,28.67
2022-08-22T09:03:45.823Z,28.28
2022-08-22T09:06:30.955Z,27.06
2022-08-22T09:09:03.929Z,26.25
2022-08-22T09:11:58.267Z,27.10
2022-08-22T09:14:48.457Z,27.92
2022-08-22T09:17:51.575Z,29.09
2022-08-22T09:20:49.098Z,29.94
2022-08-22T09:23:44.111Z,30.37
2022-08-22T09:26:18.986Z,30.66
2022-08-22T09:29:01.915Z,30.18
2022-08-22T09:31:48.175Z,30.10
2022-08-22T09:34:31.791Z,29.81
2022-08-22T09:37:13.979Z,29.96
2022-08-22T09:39:53.399Z,30.42
2022-08-22T09:42:31.296Z,31.05
2022-08-22T09:45:06.853Z,30.88
2022-08-22T09:47:43.571Z,30.60
2022-08-22T09:50:30.806Z,30.93
2022-08-22T09:53:10.287Z,31.41
2022-08-22T09:55:47.607Z,30.80
2022-08-22T09:58:28.346Z,31.02
2022-08-22T10:00:59.555Z,30.04
2022-08-22T10:03:45.327Z,30.74
2022-08-22T10:06:27.551Z,31.76
2022-08-22T10:09:09.092Z,32.25
2022-08-22T10:11:57.761Z,31.76
2022-08-22T10:14:58.008Z,31.03
2022-08-22T10:17:41.343Z,30.57
2022-08-22T10:20:24.779Z,30.29
2022-08-22T10:23:00.343Z,30.92
2022-08-22T10:25:46.939Z,32.01
2022-08-22T10:28:28.474Z,30.95
2022-08-22T10:31:17.963Z,30.96
2022-08-22T10:34:02.335Z,30.57
2022-08-22T10:36:55.072Z,30.30
2022-08-22T10:39:26.632Z,29.89
2022-08-22T10:42:19.348Z,29.51
2022-08-22T10:45:04.546Z,29.70
2022-08-22T10:47:40.802Z,29.49
2022-08-22T10:50:21.131Z,30.29
2022-08-22T10:53:28.980Z,29.79
2022-08-22T10:56:13.806Z,31.72
2022-08-22T10:59:03.949Z,30.66
2022-08-22T11:01:42.246Z,29.38
2022-08-22T11:04:40.687Z,27.99
2022-08-22T11:07:21.839Z,27.34
2022-08-22T11:09:58.683Z,27.24
2022-08-22T11:12:37.340Z,27.28
2022-08-22T11:15:40.547Z,27.27
2022-08-22T11:18:34.707Z,28.15
2022-08-22T11:21:07.395Z,28.63
2022-08-22T11:24:00.649Z,28.30
2022-08-22T11:26:47.431Z,28.84
2022-08-22T11:29:36.289Z,28.61
2022-08-22T11:32:31.846Z,28.16
2022-08-22T11:35:21.642Z,28.33
2022-08-22T11:38:04.948Z,28.67
2022-08-22T11:40:57.699Z,28.74
2022-08-22T11:43:49.614Z,29.11
2022-08-22T11:46:30.716Z,29.32
2022-08-22T11:49:19.017Z,31.10
2022-08-22T11:52:21.814Z,31.18
2022-08-22T11:55:16.611Z,29.39
2022-08-22T11:57:47.848Z,29.44
2022-08-22T12:00:29.707Z,29.32
2022-08-22T12:03:19.082Z,31.26
2022-08-22T12:06:32.242Z,33.00
2022-08-22T12:09:39.801Z,33.02
2022-08-22T12:12:42.393Z,30.96
2022-08-22T12:15:33.607Z,30.86
2022-08-22T12:18:29.415Z,29.82
2022-08-22T12:21:14.847Z,29.27
2022-08-22T12:23:59.306Z,30.60
2022-08-22T12:26:57.118Z,29.96
2022-08-22T12:29:45.536Z,29.32
2022-08-22T12:32:33.268Z,30.16
2022-08-22T12:35:29.813Z,30.93
2022-08-22T12:38:26.661Z,33.08
2022-08-22T12:41:08.629Z,36.24
2022-08-22T12:43:57.983Z,36.32
2022-08-22T12:46:47.179Z,33.16
2022-08-22T12:49:33.851Z,29.88
2022-08-22T12:52:24.989Z,28.73
2022-08-22T12:55:31.488Z,28.09
2022-08-22T12:58:07.541Z,28.08
2022-08-22T13:00:45.208Z,27.60
2022-08-22T13:03:35.243Z,27.05
2022-08-22T13:06:26.535Z,26.76
2022-08-22T13:08:54.251Z,26.67
2022-08-22T13:11:23.242Z,26.56
2022-08-22T13:14:00.310Z,26.16
2022-08-22T13:16:37.544Z,26.28
2022-08-22T13:19:13.446Z,26.79
2022-08-22T13:21:47.097Z,26.83
2022-08-22T13:24:38.805Z,26.22
2022-08-22T13:27:15.156Z,26.42
2022-08-22T13:29:52.486Z,26.54
2022-08-22T13:32:37.234Z,26.79
2022-08-22T13:35:07.912Z,26.89
2022-08-22T13:37:43.841Z,26.82
2022-08-22T13:40:15.273Z,26.92
2022-08-22T13:42:54.154Z,27.53
2022-08-22T13:45:28.539Z,27.64
2022-08-22T13:47:59.213Z,27.78
2022-08-22T13:50:53.594Z,27.37
2022-08-22T13:54:02.195Z,27.12
2022-08-22T13:56:39.686Z,27.30
2022-08-22T13:59:49.689Z,27.22
2022-08-22T14:02:43.789Z,27.17
2022-08-22T14:05:20.498Z,27.12
2022-08-22T14:08:12.864Z,26.85
2022-08-22T14:10:47.087Z,26.45
2022-08-22T14:13:30.462Z,26.42
2022-08-22T14:16:02.508Z,26.43
2022-08-22T14:18:45.528Z,26.49
2022-08-22T14:21:24.759Z,26.57
2022-08-22T14:23:53.389Z,26.49
2022-08-22T14:26:32.996Z,26.27
2022-08-22T14:29:08.325Z,25.98
2022-08-22T14:31:35.630Z,25.92
2022-08-22T14:34:10.476Z,25.93
2022-08-22T14:36:55.882Z,25.92
2022-08-22T14:39:36.596Z,25.99
2022-08-22T14:42:17.484Z,26.13
2022-08-22T14:44:57.778Z,26.14
2022-08-22T14:47:55.434Z,25.91
2022-08-22T14:50:53.259Z,25.86
2022-08-22T14:53:22.181Z,25.95
2022-08-22T14:56:00.565Z,25.89
2022-08-22T14:58:29.665Z,25.79
2022-08-22T15:00:57.943Z,25.61
2022-08-22T15:03:37.389Z,25.45
2022-08-22T15:06:10.148Z,25.49
2022-08-22T15:08:49.238Z,25.53
2022-08-22T15:11:25.639Z,25.53
2022-08-22T15:14:08.167Z,25.53
2022-08-22T15:16:55.288Z,25.61
2022-08-22T15:19:35.216Z,25.67
2022-08-22T15:22:25.624Z,25.76
2022-08-22T15:25:04.534Z,25.73
2022-08-22T15:28:05.298Z,25.71
2022-08-22T15:30:57.701Z,25.70
2022-08-22T15:33:27.846Z,25.50
2022-08-22T15:36:15.735Z,25.51
2022-08-22T15:38:48.117Z,25.57
2022-08-22T15:41:36.472Z,25.42
2022-08-22T15:44:14.898Z,25.42
2022-08-22T15:47:11.619Z,25.36
2022-08-22T15:49:52.804Z,25.39
2022-08-22T15:52:29.310Z,25.45
2022-08-22T15:54:57.066Z,25.49
2022-08-22T15:58:04.940Z,25.51
2022-08-22T16:01:02.466Z,25.52
2022-08-22T16:03:33.022Z,25.49
2022-08-22T16:06:07.428Z,25.55
2022-08-22T16:08:36.959Z,25.62
2022-08-22T16:11:03.257Z,25.66
2022-08-22T16:13:29.755Z,25.59
2022-08-22T16:16:02.241Z,25.57
2022-08-22T16:18:35.196Z,25.58
2022-08-22T16:21:08.514Z,25.56
2022-08-22T16:23:50.074Z,25.57
2022-08-22T16:26:31.797Z,25.41
2022-08-22T16:29:13.476Z,25.16
2022-08-22T16:31:43.737Z,25.15
2022-08-22T16:34:16.276Z,25.08
2022-08-22T16:36:54.764Z,25.03
2022-08-22T16:39:21.202Z,24.98
2022-08-22T16:41:54.112Z,24.94
2022-08-22T16:44:20.475Z,24.89
2022-08-22T16:46:48.662Z,24.84
2022-08-22T16:49:50.235Z,24.81
2022-08-22T16:52:25.904Z,24.85
2022-08-22T16:55:01.216Z,24.85
2022-08-22T16:58:06.013Z,24.79
2022-08-22T17:00:57.884Z,24.72
2022-08-22T17:03:55.390Z,24.73
2022-08-22T17:06:32.065Z,24.66
2022-08-22T17:09:14.482Z,24.58
2022-08-22T17:11:49.106Z,24.50
2022-08-22T17:14:41.766Z,24.39
2022-08-22T17:17:29.001Z,24.31
2022-08-22T17:20:08.132Z,24.28
2022-08-22T17:22:54.149Z,24.04
2022-08-22T17:25:29.071Z,23.79
2022-08-22T17:28:39.266Z,23.79
2022-08-22T17:31:17.323Z,23.69
2022-08-22T17:33:52.391Z,23.35
2022-08-22T17:36:27.907Z,23.03
2022-08-22T17:39:17.242Z,22.75
2022-08-22T17:42:06.867Z,22.62
2022-08-22T17:44:46.943Z,22.50
2022-08-22T17:47:32.639Z,22.40
2022-08-22T17:50:10.618Z,22.30
2022-08-22T17:52:49.099Z,22.24
2022-08-22T17:55:26.573Z,22.20
2022-08-22T17:58:04.981Z,22.19
2022-08-22T18:00:35.519Z,22.07
2022-08-22T18:03:07.655Z,21.96
2022-08-22T18:06:01.434Z,21.89
2022-08-22T18:09:13.311Z,21.78
2022-08-22T18:11:40.062Z,21.69
2022-08-22T18:14:21.124Z,21.60
2022-08-22T18:16:53.817Z,21.55
2022-08-22T18:19:45.171Z,21.47
2022-08-22T18:22:11.571Z,21.44
2022-08-22T18:25:08.563Z,21.35
2022-08-22T18:27:51.619Z,21.22
2022-08-22T18:30:26.621Z,21.12
2022-08-22T18:33:05.897Z,21.03
2022-08-22T18:35:42.755Z,20.95
2022-08-22T18:38:35.852Z,20.84
2022-08-22T18:41:28.628Z,20.72
2022-08-22T18:43:58.339Z,20.63
2022-08-22T18:46:47.878Z,20.55
2022-08-22T18:49:24.037Z,20.45
2022-08-22T18:52:05.739Z,20.35
2022-08-22T18:54:52.138Z,20.29
2022-08-22T18:57:55.662Z,20.20
2022-08-22T19:00:38.818Z,20.13
2022-08-22T19:03:28.507Z,20.01
2022-08-22T19:06:00.963Z,19.98
2022-08-22T19:08:36.393Z,19.86
2022-08-22T19:11:35.091Z,19.71
2022-08-22T19:14:24.051Z,19.55
2022-08-22T19:17:15.631Z,19.45
2022-08-22T19:20:22.862Z,19.40
2022-08-22T19:23:00.483Z,19.29
2022-08-22T19:25:27.932Z,19.17
2022-08-22T19:28:06.567Z,19.06
2022-08-22T19:30:44.998Z,18.96
2022-08-22T19:33:34.150Z,18.87
2022-08-22T19:36:09.400Z,18.76
2022-08-22T19:39:09.229Z,18.65
2022-08-22T19:41:54.039Z,18.62
2022-08-22T19:44:20.313Z,18.55
2022-08-22T19:47:04.784Z,18.49
2022-08-22T19:49:42.820Z,18.39
2022-08-22T19:52:46.541Z,18.28
2022-08-22T19:55:18.647Z,18.16
2022-08-22T19:58:00.199Z,18.06
2022-08-22T20:01:05.095Z,18.06
2022-08-22T20:03:41.803Z,18.05
2022-08-22T20:06:44.139Z,18.01
2022-08-22T20:09:52.947Z,17.92
2022-08-22T20:12:42.089Z,17.86
2022-08-22T20:15:20.196Z,17.79
2022-08-22T20:18:46.536Z,17.78
2022-08-22T20:20:54.448Z,17.73
2022-08-22T20:23:29.555Z,17.68
2022-08-22T20:25:57.276Z,17.65
2022-08-22T20:28:53.155Z,17.60
2022-08-22T20:31:23.616Z,17.53
2022-08-22T20:34:00.636Z,17.51
2022-08-22T20:36:29.286Z,17.49
2022-08-22T20:39:01.717Z,17.48
2022-08-22T20:41:31.728Z,17.45
2022-08-22T20:44:19.290Z,17.40
2022-08-22T20:46:55.213Z,17.32
2022-08-22T20:49:28.160Z,17.24
2022-08-22T20:52:34.770Z,17.19
2022-08-22T20:55:01.059Z,17.21
2022-08-22T20:57:28.426Z,17.21
2022-08-22T20:59:56.546Z,17.22
2022-08-22T21:02:34.627Z,17.21
2022-08-22T21:05:40.900Z,17.19
2022-08-22T21:08:18.077Z,17.15
2022-08-22T21:11:03.727Z,17.13
2022-08-22T21:13:37.694Z,17.10
2022-08-22T21:16:30.694Z,17.09
2022-08-22T21:18:57.871Z,17.10
2022-08-22T21:21:30.583Z,17.12
2022-08-22T21:24:01.381Z,17.13
2022-08-22T21:26:38.528Z,17.11
2022-08-22T21:29:14.042Z,17.09
2022-08-22T21:31:49.879Z,17.01
2022-08-22T21:34:22.658Z,17.04
2022-08-22T21:36:52.307Z,17.02
2022-08-22T21:39:22.436Z,16.98
2022-08-22T21:41:52.960Z,16.95
2022-08-22T21:44:27.676Z,16.96
2022-08-22T21:46:54.756Z,16.94
2022-08-22T21:49:21.386Z,16.90
2022-08-22T21:51:48.542Z,16.85
2022-08-22T21:54:29.861Z,16.85
2022-08-22T21:57:09.983Z,16.87
2022-08-22T21:59:51.955Z,16.87
2022-08-22T22:02:37.354Z,16.80
2022-08-22T22:05:18.075Z,16.74
2022-08-22T22:07:46.631Z,16.69
2022-08-22T22:10:16.796Z,16.64
2022-08-22T22:12:45.628Z,16.55
2022-08-22T22:15:16.401Z,16.53
2022-08-22T22:17:43.402Z,16.52
2022-08-22T22:20:11.604Z,16.48
2022-08-22T22:22:46.042Z,16.43
2022-08-22T22:25:41.324Z,16.36
2022-08-22T22:28:06.575Z,16.30
2022-08-22T22:30:33.143Z,16.22
2022-08-22T22:32:59.798Z,16.18
2022-08-22T22:35:26.878Z,16.11
2022-08-22T22:37:54.168Z,16.08
2022-08-22T22:40:20.676Z,16.08
2022-08-22T22:42:47.179Z,16.09
2022-08-22T22:45:13.580Z,16.07
2022-08-22T22:47:40.006Z,16.03
2022-08-22T22:50:07.058Z,16.00
2022-08-22T22:52:33.588Z,15.96
2022-08-22T22:55:08.365Z,15.97
2022-08-22T22:57:41.398Z,16.03
2022-08-22T23:00:12.648Z,16.12
2022-08-22T23:02:40.144Z,16.18
2022-08-22T23:05:08.662Z,16.17
2022-08-22T23:07:37.570Z,16.12
2022-08-22T23:10:06.754Z,16.13
2022-08-22T23:12:35.567Z,16.15
2022-08-22T23:15:02.162Z,16.17
2022-08-22T23:17:28.735Z,16.19
2022-08-22T23:19:55.179Z,16.22
2022-08-22T23:22:21.532Z,16.24
2022-08-22T23:24:49.566Z,16.24
2022-08-22T23:27:16.024Z,16.23
2022-08-22T23:29:43.029Z,16.24
2022-08-22T23:32:11.153Z,16.25
2022-08-22T23:34:43.859Z,16.23
2022-08-22T23:37:10.543Z,16.20
2022-08-22T23:39:38.363Z,16.14
2022-08-22T23:42:10.334Z,16.10
2022-08-22T23:44:39.320Z,16.08
2022-08-22T23:47:07.454Z,16.07
2022-08-22T23:49:34.740Z,16.04
2022-08-22T23:52:01.853Z,16.06
2022-08-22T23:54:28.548Z,16.02
2022-08-22T23:56:57.430Z,15.90
2022-08-22T23:59:30.625Z,15.82
